Terminal Aerodrome Forecast
Issued by NWS

Home | Current Version | Previous Version | Graphics & Text | Print | Product List | Glossary On
Versions: 1 2 3 4 5 6 7 8 9 10 11 12 13 14 15 16 17 18 19 20 21 22 23 24 25 26 27 28 29 30 31 32 33
000
FTUS43 KLOT 140300 AAA
TAFGYY
TAF AMD
KGYY 140338Z 1404/1424 18015G25KT P6SM VCSH BKN050 OVC100
     FM140440 18015G22KT 3SM RA OVC025
     FM140550 20015G25KT P6SM VCSH BKN050 OVC100
     FM141100 34023G33KT P6SM OVC010
     FM142100 36015G25KT 2SM -SN BR OVC020=

USA.gov is the U.S. government's official web portal to all federal, state and local government web resources and services.